Map

Track Data

SID SEASON NUMBER BASIN SUBBASIN NAME ISO_TIME NATURE LAT LON WMO_WIND WMO_PRES WMO_AGENCY TRACK_TYPE DIST2LAND LANDFALL IFLAG USA_AGENCY USA_ATCF_ID USA_LAT USA_LON USA_RECORD USA_STATUS USA_WIND USA_PRES USA_SSHS USA_R34_NE USA_R34_SE USA_R34_SW USA_R34_NW USA_R50_NE USA_R50_SE USA_R50_SW USA_R50_NW USA_R64_NE USA_R64_SE USA_R64_SW USA_R64_NW USA_POCI USA_ROCI USA_RMW USA_EYE TOKYO_LAT TOKYO_LON TOKYO_GRADE TOKYO_WIND TOKYO_PRES TOKYO_R50_DIR TOKYO_R50_LONG TOKYO_R50_SHORT TOKYO_R30_DIR TOKYO_R30_LONG TOKYO_R30_SHORT TOKYO_LAND CMA_LAT CMA_LON CMA_CAT CMA_WIND CMA_PRES HKO_LAT HKO_LON HKO_CAT HKO_WIND HKO_PRES NEWDELHI_LAT NEWDELHI_LON NEWDELHI_GRADE NEWDELHI_WIND NEWDELHI_PRES NEWDELHI_CI NEWDELHI_DP NEWDELHI_POCI REUNION_LAT REUNION_LON REUNION_TYPE REUNION_WIND REUNION_PRES REUNION_TNUM REUNION_CI REUNION_RMW REUNION_R34_NE REUNION_R34_SE REUNION_R34_SW REUNION_R34_NW REUNION_R50_NE REUNION_R50_SE REUNION_R50_SW REUNION_R50_NW REUNION_R64_NE REUNION_R64_SE REUNION_R64_SW REUNION_R64_NW BOM_LAT BOM_LON BOM_TYPE BOM_WIND BOM_PRES BOM_TNUM BOM_CI BOM_RMW BOM_R34_NE BOM_R34_SE BOM_R34_SW BOM_R34_NW BOM_R50_NE BOM_R50_SE BOM_R50_SW BOM_R50_NW BOM_R64_NE BOM_R64_SE BOM_R64_SW BOM_R64_NW BOM_ROCI BOM_POCI BOM_EYE BOM_POS_METHOD BOM_PRES_METHOD NADI_LAT NADI_LON NADI_CAT NADI_WIND NADI_PRES WELLINGTON_LAT WELLINGTON_LON WELLINGTON_WIND WELLINGTON_PRES DS824_LAT DS824_LON DS824_STAGE DS824_WIND DS824_PRES TD9636_LAT TD9636_LON TD9636_STAGE TD9636_WIND TD9636_PRES TD9635_LAT TD9635_LON TD9635_WIND TD9635_PRES TD9635_ROCI NEUMANN_LAT NEUMANN_LON NEUMANN_CLASS NEUMANN_WIND NEUMANN_PRES MLC_LAT MLC_LON MLC_CLASS MLC_WIND MLC_PRES USA_GUST BOM_GUST BOM_GUST_PER REUNION_GUST REUNION_GUST_PER USA_SEAHGT USA_SEARAD_NE USA_SEARAD_SE USA_SEARAD_SW USA_SEARAD_NW STORM_SPEED STORM_DIR
1969302N31318 1969 107 NA NA NOT_NAMED 1969-10-28 12:00:00 SS 30.5000 -42.5000 35 1014 hurdat_atl main 2014 1953 O_____________ hurdat_atl AL271969 30.5000 -42.5000 SS 35 1014 -2 12 314
1969302N31318 1969 107 NA NA NOT_NAMED 1969-10-28 15:00:00 SS 30.9103 -42.9942 main 1953 1894 P_____________ AL271969 30.9103 -42.9942 SS 35 -2 12 313
1969302N31318 1969 107 NA NA NOT_NAMED 1969-10-28 18:00:00 SS 31.3000 -43.5000 35 hurdat_atl main 1894 1844 O_____________ hurdat_atl AL271969 31.3000 -43.5000 SS 35 -2 12 311
1969302N31318 1969 107 NA NA NOT_NAMED 1969-10-28 21:00:00 SS 31.6575 -44.0153 main 1834 1785 P_____________ AL271969 31.6575 -44.0153 SS 37 -2 11 309
1969302N31318 1969 107 NA NA NOT_NAMED 1969-10-29 00:00:00 SS 32.0000 -44.5000 40 hurdat_atl main 1785 1740 O_____________ hurdat_atl AL271969 32.0000 -44.5000 SS 40 -2 10 312
1969302N31318 1969 107 NA NA NOT_NAMED 1969-10-29 03:00:00 SS 32.3573 -44.9302 main 1730 1685 P_____________ AL271969 32.3573 -44.9302 SS 42 -2 10 316
1969302N31318 1969 107 NA NA NOT_NAMED 1969-10-29 06:00:00 SS 32.7000 -45.3000 45 hurdat_atl main 1685 1644 O_____________ hurdat_atl AL271969 32.7000 -45.3000 SS 45 -2 9 318
1969302N31318 1969 107 NA NA NOT_NAMED 1969-10-29 09:00:00 SS 33.0149 -45.6228 main 1644 1603 P_____________ AL271969 33.0149 -45.6228 SS 47 -2 8 320
1969302N31318 1969 107 NA NA NOT_NAMED 1969-10-29 12:00:00 TS 33.3000 -45.9000 50 995 hurdat_atl main 1603 1562 O_____________ hurdat_atl AL271969 33.3000 -45.9000 TS 50 995 0 7 321
1969302N31318 1969 107 NA NA NOT_NAMED 1969-10-29 15:00:00 TS 33.5649 -46.1652 main 1562 1534 P_____________ AL271969 33.5649 -46.1652 TS 52 0 7 320
1969302N31318 1969 107 NA NA NOT_NAMED 1969-10-29 18:00:00 TS 33.8000 -46.4000 55 hurdat_atl main 1534 1507 O_____________ hurdat_atl AL271969 33.8000 -46.4000 TS 55 0 6 319
1969302N31318 1969 107 NA NA NOT_NAMED 1969-10-29 21:00:00 TS 34.0000 -46.6226 main 1507 1480 P_____________ AL271969 34.0000 -46.6226 TS 55 0 5 320
1969302N31318 1969 107 NA NA NOT_NAMED 1969-10-30 00:00:00 TS 34.2000 -46.8000 55 hurdat_atl main 1480 1456 O_____________ hurdat_atl AL271969 34.2000 -46.8000 TS 55 0 5 328
1969302N31318 1969 107 NA NA NOT_NAMED 1969-10-30 03:00:00 TS 34.4200 -46.9448 main 1456 1421 P_____________ AL271969 34.4200 -46.9448 TS 57 0 5 342
1969302N31318 1969 107 NA NA NOT_NAMED 1969-10-30 06:00:00 TS 34.7000 -47.0000 60 hurdat_atl main 1421 1390 O_____________ hurdat_atl AL271969 34.7000 -47.0000 TS 60 0 6 2
1969302N31318 1969 107 NA NA NOT_NAMED 1969-10-30 09:00:00 TS 35.0625 -46.9376 main 1383 1344 P_____________ AL271969 35.0625 -46.9376 TS 60 0 8 12
1969302N31318 1969 107 NA NA NOT_NAMED 1969-10-30 12:00:00 TS 35.5000 -46.8000 60 hurdat_atl main 1344 1306 O_____________ hurdat_atl AL271969 35.5000 -46.8000 TS 60 0 9 14
1969302N31318 1969 107 NA NA NOT_NAMED 1969-10-30 15:00:00 TS 35.9475 -46.6719 main 1306 1252 P_____________ AL271969 35.9475 -46.6719 TS 55 0 10 14
1969302N31318 1969 107 NA NA NOT_NAMED 1969-10-30 18:00:00 TS 36.5000 -46.5000 50 hurdat_atl main 1252 1213 O_____________ hurdat_atl AL271969 36.5000 -46.5000 TS 50 0 11 18
1969302N31318 1969 107 NA NA NOT_NAMED 1969-10-30 21:00:00 TS 37.0255 -46.2282 main 1213 1132 P_____________ AL271969 37.0255 -46.2282 TS 45 0 16 15
1969302N31318 1969 107 NA NA NOT_NAMED 1969-10-31 00:00:00 TS 38.0000 -46.0000 40 990 hurdat_atl main 1122 952 O_____________ hurdat_atl AL271969 38.0000 -46.0000 TS 40 990 0 29 3
1969302N31318 1969 107 NA NA NOT_NAMED 1969-10-31 03:00:00 TS 39.8875 -46.0299 main 943 773 P_____________ AL271969 39.8875 -46.0299 TS 40 991 0 40 0
1969302N31318 1969 107 NA NA NOT_NAMED 1969-10-31 06:00:00 TS 42.0000 -46.0000 40 992 hurdat_atl main 765 671 O_____________ hurdat_atl AL271969 42.0000 -46.0000 TS 40 992 0 38 4
1969302N31318 1969 107 NA NA NOT_NAMED 1969-10-31 09:00:00 TS 43.6477 -45.6854 main 671 642 P_____________ AL271969 43.6477 -45.6854 TS 40 993 0 31 14
1969302N31318 1969 107 NA NA NOT_NAMED 1969-10-31 12:00:00 ET 45.0000 -45.0000 40 994 hurdat_atl main 644 643 O_____________ hurdat_atl AL271969 45.0000 -45.0000 EX 40 994 -4 28 28
1969302N31318 1969 107 NA NA NOT_NAMED 1969-10-31 15:00:00 ET 46.1139 -43.8638 main 677 677 P_____________ AL271969 46.1139 -43.8638 EX 37 995 -4 26 41
1969302N31318 1969 107 NA NA NOT_NAMED 1969-10-31 18:00:00 ET 47.0000 -42.5000 35 996 hurdat_atl main 760 760 O_____________ hurdat_atl AL271969 47.0000 -42.5000 EX 35 996 -4 24 48
1969302N31318 1969 107 NA NA NOT_NAMED 1969-10-31 21:00:00 ET 47.7486 -41.2411 main 850 850 P_____________ AL271969 47.7486 -41.2411 EX 35 997 -4 22 48
1969302N31318 1969 107 NA NA NOT_NAMED 1969-11-01 00:00:00 ET 48.5000 -40.0000 35 998 hurdat_atl main 938 938 O_____________ hurdat_atl AL271969 48.5000 -40.0000 EX 35 998 -4 22 40
1969302N31318 1969 107 NA NA NOT_NAMED 1969-11-01 03:00:00 ET 49.4419 -39.0965 main 1008 1008 P_____________ AL271969 49.4419 -39.0965 EX 32 999 -4 26 39
1969302N31318 1969 107 NA NA NOT_NAMED 1969-11-01 06:00:00 ET 50.5000 -37.5000 30 1000 hurdat_atl main 1119 1095 O_____________ hurdat_atl AL271969 50.5000 -37.5000 EX 30 1000 -4 37 57
1969302N31318 1969 107 NA NA NOT_NAMED 1969-11-01 09:00:00 ET 51.4769 -34.1527 main 1099 1099 P_____________ AL271969 51.4769 -34.1527 EX 30 1000 -4 51 67
1969302N31318 1969 107 NA NA NOT_NAMED 1969-11-01 12:00:00 ET 52.5000 -30.0000 30 1001 hurdat_atl main 1159 1048 O_____________ hurdat_atl AL271969 52.5000 -30.0000 EX 30 1001 -4 54 66
1969302N31318 1969 107 NA NA NOT_NAMED 1969-11-01 15:00:00 ET 53.7097 -25.9775 main 1034 778 P_____________ AL271969 53.7097 -25.9775 EX 30 1001 -4 53 62
1969302N31318 1969 107 NA NA NOT_NAMED 1969-11-01 18:00:00 ET 55.0000 -22.0000 30 1002 hurdat_atl main 766 O_____________ hurdat_atl AL271969 55.0000 -22.0000 EX 30 1002 -4 53 61

About IBTrACS Database

This database is a web-friendly format of International Best Track Archive for Climate Stewardship (IBTrACS), a global best track data archive curated by NOAA dating back to 1842.

Updated: 2022-06-24